createdAt,value
2023-01-04T00:00:27.371Z,7.8
2023-01-04T00:02:28.702Z,7.8
2023-01-04T00:04:29.977Z,7.8
2023-01-04T00:06:31.331Z,7.8
2023-01-04T00:08:32.686Z,7.9
2023-01-04T00:10:34.049Z,7.8
2023-01-04T00:14:40.058Z,7.8
2023-01-04T00:16:41.532Z,7.8
2023-01-04T00:18:42.832Z,7.8
2023-01-04T00:20:44.172Z,7.9
2023-01-04T00:22:45.542Z,7.9
2023-01-04T00:24:46.902Z,7.8
2023-01-04T00:28:54.550Z,7.9
2023-01-04T00:30:54.333Z,7.8
2023-01-04T00:32:55.638Z,7.9
2023-01-04T00:34:56.985Z,7.9
2023-01-04T00:41:01.035Z,7.9
2023-01-04T00:43:05.708Z,7.9
2023-01-04T00:49:29.146Z,7.8
2023-01-04T00:53:31.868Z,7.7
2023-01-04T00:55:36.525Z,7.7
2023-01-04T00:59:39.260Z,7.6
2023-01-04T01:01:40.858Z,7.6
2023-01-04T01:03:42.087Z,7.6
2023-01-04T01:05:43.337Z,7.6
2023-01-04T01:07:44.680Z,7.7
2023-01-04T01:09:49.368Z,7.7
2023-01-04T01:11:50.727Z,7.7
2023-01-04T01:13:52.097Z,7.7
2023-01-04T01:15:53.479Z,7.7
2023-01-04T01:17:54.745Z,7.7
2023-01-04T01:19:56.125Z,7.7
2023-01-04T01:24:02.178Z,7.8
2023-01-04T01:26:03.506Z,7.7
2023-01-04T01:28:04.850Z,7.8
2023-01-04T01:32:07.578Z,7.8
2023-01-04T01:34:08.919Z,7.8
2023-01-04T01:36:10.324Z,7.9
2023-01-04T01:38:14.935Z,7.9
2023-01-04T01:40:16.332Z,7.9
2023-01-04T01:43:19.982Z,8
2023-01-04T01:45:21.311Z,7.9
2023-01-04T01:47:22.694Z,7.9
2023-01-04T01:49:24.080Z,7.9
2023-01-04T01:51:28.746Z,8
2023-01-04T01:53:30.066Z,8
2023-01-04T01:55:31.425Z,8
2023-01-04T01:57:32.794Z,8
2023-01-04T02:01:35.599Z,8
2023-01-04T02:03:36.878Z,8.1
2023-01-04T02:05:41.508Z,8.1
2023-01-04T02:07:42.908Z,8.1
2023-01-04T02:09:44.238Z,8.2
2023-01-04T02:13:47.445Z,8.2
2023-01-04T02:21:56.183Z,8.2
2023-01-04T02:23:57.544Z,8.3
2023-01-04T02:30:01.903Z,8.4
2023-01-04T02:32:03.226Z,8.4
2023-01-04T02:39:12.941Z,8.5
2023-01-04T02:41:14.281Z,8.5
2023-01-04T02:43:16.040Z,8.5
2023-01-04T02:45:16.981Z,8.5
2023-01-04T02:47:21.687Z,8.6
2023-01-04T02:51:24.414Z,8.6
2023-01-04T02:53:25.785Z,8.6
2023-01-04T02:55:27.132Z,8.7
2023-01-04T02:57:28.485Z,8.7
2023-01-04T02:59:29.863Z,8.7
2023-01-04T03:01:34.685Z,8.7
2023-01-04T03:03:36.034Z,8.7
2023-01-04T03:05:37.266Z,8.7
2023-01-04T03:07:38.639Z,8.8
2023-01-04T03:09:39.971Z,8.8
2023-01-04T03:11:41.357Z,8.8
2023-01-04T03:13:42.717Z,8.8
2023-01-04T03:15:47.434Z,8.8
2023-01-04T03:17:48.722Z,8.8
2023-01-04T03:19:50.109Z,8.9
2023-01-04T03:21:51.438Z,8.8
2023-01-04T03:23:52.812Z,8.8
2023-01-04T03:25:54.206Z,8.9
2023-01-04T03:27:55.540Z,8.9
2023-01-04T03:30:00.230Z,8.9
2023-01-04T03:32:01.595Z,9
2023-01-04T03:34:02.924Z,9
2023-01-04T03:39:08.007Z,9
2023-01-04T03:41:09.374Z,9
2023-01-04T03:43:14.077Z,9.1
2023-01-04T03:45:15.368Z,9
2023-01-04T03:47:16.843Z,9.1
2023-01-04T03:51:19.465Z,9.1
2023-01-04T03:53:20.803Z,9.1
2023-01-04T03:55:22.179Z,9.2
2023-01-04T03:57:26.860Z,9.2
2023-01-04T03:59:28.232Z,9.2
2023-01-04T04:01:29.839Z,9.2
2023-01-04T04:03:30.979Z,9.2
2023-01-04T04:05:32.312Z,9.3
2023-01-04T04:07:33.665Z,9.3
2023-01-04T04:09:35.030Z,9.3
2023-01-04T04:11:39.683Z,9.3
2023-01-04T04:13:41.021Z,9.3
2023-01-04T04:15:42.412Z,9.4
2023-01-04T04:17:45.357Z,9.4
2023-01-04T04:19:46.690Z,9.4
2023-01-04T04:21:48.026Z,9.4
2023-01-04T04:23:49.406Z,9.4
2023-01-04T04:25:54.096Z,9.5
2023-01-04T04:27:55.422Z,9.5
2023-01-04T04:29:56.804Z,9.5
2023-01-04T04:32:25.607Z,9.6
2023-01-04T04:34:26.935Z,9.6
2023-01-04T04:36:28.333Z,9.5
2023-01-04T04:38:33.007Z,9.6
2023-01-04T04:40:34.338Z,9.6
2023-01-04T04:42:35.749Z,9.6
2023-01-04T04:44:37.105Z,9.7
2023-01-04T04:46:38.489Z,9.7
2023-01-04T04:48:39.827Z,9.8
2023-01-04T04:50:41.189Z,9.8
2023-01-04T04:52:49.813Z,9.8
2023-01-04T05:00:51.357Z,9.8
2023-01-04T05:02:52.742Z,9.8
2023-01-04T05:04:54.056Z,9.9
2023-01-04T05:06:58.750Z,9.9
2023-01-04T05:09:00.126Z,9.9
2023-01-04T05:11:01.430Z,9.9
2023-01-04T05:13:02.837Z,10
2023-01-04T05:15:04.215Z,9.9
2023-01-04T05:17:05.609Z,9.9
2023-01-04T05:19:06.874Z,9.9
2023-01-04T05:21:14.504Z,9.9
2023-01-04T05:23:12.962Z,10
2023-01-04T05:25:14.317Z,10
2023-01-04T05:26:16.690Z,10
2023-01-04T05:28:18.020Z,10
2023-01-04T05:30:19.371Z,10
2023-01-04T05:32:20.743Z,10
2023-01-04T05:34:25.410Z,10
2023-01-04T05:36:26.794Z,10
2023-01-04T05:38:28.153Z,10
2023-01-04T05:40:29.546Z,10
2023-01-04T05:42:30.882Z,10
2023-01-04T05:44:32.259Z,10
2023-01-04T05:46:33.627Z,10
2023-01-04T05:48:38.282Z,10.1
2023-01-04T05:50:39.636Z,10
2023-01-04T05:52:41.020Z,10
2023-01-04T05:54:42.348Z,10
2023-01-04T05:56:43.714Z,10.1
2023-01-04T05:58:45.107Z,10
2023-01-04T06:00:46.447Z,10.1
2023-01-04T06:02:51.204Z,10.1
2023-01-04T06:04:58.429Z,10.1
2023-01-04T06:08:55.247Z,10.1
2023-01-04T06:10:56.579Z,10.1
2023-01-04T06:12:57.967Z,10.2
2023-01-04T06:14:59.326Z,10.1
2023-01-04T06:17:03.994Z,10.2
2023-01-04T06:19:05.318Z,10.2
2023-01-04T06:21:06.718Z,10.2
2023-01-04T06:22:09.050Z,10.2
2023-01-04T06:24:10.447Z,10.2
2023-01-04T06:26:11.811Z,10.2
2023-01-04T06:28:13.134Z,10.2
2023-01-04T06:30:17.792Z,10.2
2023-01-04T06:32:19.153Z,10.2
2023-01-04T06:34:24.036Z,10.2
2023-01-04T06:36:21.907Z,10.2
2023-01-04T06:38:23.275Z,10.2
2023-01-04T06:40:24.621Z,10.2
2023-01-04T06:42:25.986Z,10.2
2023-01-04T06:44:30.667Z,10.2
2023-01-04T06:46:32.127Z,10.2
2023-01-04T06:48:33.421Z,10.2
2023-01-04T06:50:34.760Z,10.3
2023-01-04T06:52:36.141Z,10.3
2023-01-04T06:54:37.525Z,10.3
2023-01-04T06:56:38.857Z,10.3
2023-01-04T07:00:44.915Z,10.4
2023-01-04T07:03:14.389Z,10.3
2023-01-04T07:04:47.660Z,10.4
2023-01-04T07:06:49.040Z,10.4
2023-01-04T07:08:50.350Z,10.4
2023-01-04T07:10:51.690Z,10.4
2023-01-04T07:12:56.386Z,10.4
2023-01-04T07:14:57.745Z,10.4
2023-01-04T07:16:59.102Z,10.4
2023-01-04T07:18:01.414Z,10.4
2023-01-04T07:20:02.770Z,10.4
2023-01-04T07:22:04.144Z,10.4
2023-01-04T07:24:05.564Z,10.5
2023-01-04T07:26:10.166Z,10.5
2023-01-04T07:28:11.528Z,10.5
2023-01-04T07:30:12.877Z,10.4
2023-01-04T07:32:14.450Z,10.4
2023-01-04T07:34:15.609Z,10.5
2023-01-04T07:36:16.995Z,10.5
2023-01-04T07:38:18.344Z,10.4
2023-01-04T07:40:23.020Z,10.4
2023-01-04T07:42:24.365Z,10.5
2023-01-04T07:44:25.700Z,10.4
2023-01-04T07:46:27.260Z,10.4
2023-01-04T07:48:28.427Z,10.4
2023-01-04T07:50:29.796Z,10.5
2023-01-04T07:58:38.548Z,10.4
2023-01-04T08:06:43.963Z,10.4
2023-01-04T08:10:50.046Z,10.5
2023-01-04T08:15:14.347Z,10.5
2023-01-04T08:17:15.689Z,10.5
2023-01-04T08:19:17.082Z,10.5
2023-01-04T08:23:23.049Z,10.5
2023-01-04T08:27:25.771Z,10.5
2023-01-04T08:29:34.361Z,10.5
2023-01-04T08:33:29.884Z,10.5
2023-01-04T08:37:35.952Z,10.5
2023-01-04T08:39:37.245Z,10.5
2023-01-04T08:41:57.191Z,10.6
2023-01-04T08:43:39.977Z,10.6
2023-01-04T08:49:47.375Z,10.6
2023-01-04T08:53:50.149Z,10.6
2023-01-04T08:55:51.467Z,10.7
2023-01-04T08:57:52.840Z,10.7
2023-01-04T08:59:54.181Z,10.7
2023-01-04T09:02:01.018Z,10.7
2023-01-04T09:04:00.256Z,10.7
2023-01-04T09:06:01.592Z,10.7
2023-01-04T09:08:02.936Z,10.7
2023-01-04T09:09:05.264Z,10.7
2023-01-04T09:11:06.606Z,10.7
2023-01-04T09:13:07.981Z,10.7
2023-01-04T09:15:09.315Z,10.8
2023-01-04T09:17:14.033Z,10.8
2023-01-04T09:19:21.676Z,10.8
2023-01-04T09:21:16.725Z,10.8
2023-01-04T09:23:18.081Z,10.8
2023-01-04T09:25:19.461Z,10.8
2023-01-04T09:27:20.816Z,10.9
2023-01-04T09:31:26.917Z,10.9
2023-01-04T09:33:48.092Z,10.9
2023-01-04T09:35:29.524Z,11
2023-01-04T09:41:33.587Z,11
2023-01-04T09:43:34.945Z,11
2023-01-04T09:45:39.607Z,11
2023-01-04T09:47:41.029Z,11
2023-01-04T09:49:42.336Z,11
2023-01-04T09:51:43.688Z,11
2023-01-04T09:53:45.053Z,11
2023-01-04T09:55:46.398Z,11
2023-01-04T09:57:47.764Z,11
2023-01-04T09:59:52.434Z,11.1
2023-01-04T10:01:54.084Z,11.1
2023-01-04T10:03:55.215Z,11.1
2023-01-04T10:04:57.492Z,11.1
2023-01-04T10:07:04.927Z,11.1
2023-01-04T10:09:01.733Z,11.1
2023-01-04T10:11:03.081Z,11.1
2023-01-04T10:17:14.309Z,11.1
2023-01-04T10:19:23.957Z,11.1
2023-01-04T10:21:29.992Z,11.1
2023-01-04T10:25:15.921Z,11.2
2023-01-04T10:33:24.686Z,11.2
2023-01-04T10:35:26.068Z,11.2
2023-01-04T10:37:27.402Z,11.2
2023-01-04T10:39:32.713Z,11.2
2023-01-04T10:41:33.468Z,11.2
2023-01-04T10:44:10.062Z,11.2
2023-01-04T10:45:36.187Z,11.2
2023-01-04T10:47:37.540Z,11.2
2023-01-04T10:49:38.930Z,11.2
2023-01-04T10:51:40.280Z,11.2
2023-01-04T10:53:41.681Z,11.2
2023-01-04T10:56:24.253Z,11.3
2023-01-04T10:57:47.643Z,11.3
2023-01-04T10:59:49.074Z,11.3
2023-01-04T11:09:00.143Z,11.4
2023-01-04T11:11:01.518Z,11.3
2023-01-04T11:17:05.631Z,11.4
2023-01-04T11:19:07.014Z,11.4
2023-01-04T11:21:08.359Z,11.4
2023-01-04T11:23:13.066Z,11.3
2023-01-04T11:25:36.554Z,11.4
2023-01-04T11:27:15.764Z,11.4
2023-01-04T11:29:17.115Z,11.4
2023-01-04T11:31:18.522Z,11.4
2023-01-04T11:33:19.852Z,11.4
2023-01-04T11:35:21.205Z,11.4
2023-01-04T11:37:25.869Z,11.4
2023-01-04T11:39:27.253Z,11.4
2023-01-04T11:41:28.631Z,11.4
2023-01-04T11:43:29.981Z,11.4
2023-01-04T11:45:31.379Z,11.4
2023-01-04T11:47:33.427Z,11.4
2023-01-04T11:49:34.099Z,11.4
2023-01-04T11:51:38.795Z,11.4
2023-01-04T11:53:40.163Z,11.4
2023-01-04T11:55:41.515Z,11.4
2023-01-04T11:58:10.291Z,11.4
2023-01-04T12:00:11.634Z,11.4
2023-01-04T12:04:17.691Z,11.4
2023-01-04T12:10:21.791Z,11.4
2023-01-04T12:14:24.547Z,11.5
2023-01-04T12:16:25.876Z,11.5
2023-01-04T12:24:34.635Z,11.4
2023-01-04T12:26:36.009Z,11.5
2023-01-04T12:28:37.387Z,11.4
2023-01-04T12:30:38.754Z,11.5
2023-01-04T12:34:44.841Z,11.5
2023-01-04T12:36:46.158Z,11.5
2023-01-04T12:38:47.524Z,11.5
2023-01-04T12:40:48.885Z,11.5
2023-01-04T12:46:56.289Z,11.5
2023-01-04T12:48:57.655Z,11.5
2023-01-04T12:58:05.449Z,11.5
2023-01-04T13:04:12.884Z,11.5
2023-01-04T13:06:14.202Z,11.5
2023-01-04T13:08:15.567Z,11.5
2023-01-04T13:10:16.901Z,11.6
2023-01-04T13:12:18.285Z,11.6
2023-01-04T13:14:22.943Z,11.6
2023-01-04T13:16:24.383Z,11.6
2023-01-04T13:18:25.731Z,11.6
2023-01-04T13:20:27.061Z,11.7
2023-01-04T13:24:29.786Z,11.6
2023-01-04T13:28:35.823Z,11.7
2023-01-04T13:32:59.492Z,11.8
2023-01-04T13:34:39.923Z,11.7
2023-01-04T13:36:41.283Z,11.8
2023-01-04T13:42:49.018Z,11.7
2023-01-04T13:45:18.674Z,11.8
2023-01-04T13:47:54.090Z,11.8
2023-01-04T13:49:55.444Z,11.8
2023-01-04T13:52:11.320Z,11.7
2023-01-04T13:53:58.194Z,11.8
2023-01-04T13:56:02.850Z,11.7
2023-01-04T13:58:04.198Z,11.7
2023-01-04T14:00:05.575Z,11.7
2023-01-04T14:02:07.171Z,11.7
2023-01-04T14:04:08.274Z,11.7
2023-01-04T14:06:09.632Z,11.8
2023-01-04T14:08:10.995Z,11.6
2023-01-04T14:10:15.665Z,11.7
2023-01-04T14:12:17.013Z,11.7
2023-01-04T14:14:18.392Z,11.7
2023-01-04T14:25:07.739Z,11.6
2023-01-04T14:26:29.877Z,11.7
2023-01-04T14:28:31.239Z,11.6
2023-01-04T14:36:36.667Z,11.6
2023-01-04T14:38:41.360Z,11.5
2023-01-04T14:40:42.713Z,11.6
2023-01-04T14:42:44.054Z,11.6
2023-01-04T14:43:46.380Z,11.4
2023-01-04T14:45:48.182Z,11.5
2023-01-04T14:47:49.578Z,11.6
2023-01-04T14:49:50.897Z,11.4
2023-01-04T14:55:58.282Z,11.7
2023-01-04T14:57:59.662Z,12
2023-01-04T15:00:01.057Z,12.1
2023-01-04T15:02:02.581Z,12.3
2023-01-04T15:04:03.811Z,12.3
2023-01-04T15:06:08.483Z,12.3
2023-01-04T15:08:09.770Z,12.3
2023-01-04T15:10:11.134Z,12.4
2023-01-04T15:12:12.529Z,12.4
2023-01-04T15:14:13.904Z,12.4
2023-01-04T15:20:21.272Z,12.4
2023-01-04T15:22:22.674Z,12.4
2023-01-04T15:30:28.127Z,12.4
2023-01-04T15:32:29.501Z,12.4
2023-01-04T15:36:35.532Z,12.3
2023-01-04T15:38:36.895Z,12.3
2023-01-04T15:40:59.958Z,12.3
2023-01-04T15:43:01.318Z,12.3
2023-01-04T15:45:02.649Z,12.3
2023-01-04T15:47:07.413Z,12.3
2023-01-04T15:49:15.012Z,12.3
2023-01-04T15:51:10.076Z,12.3
2023-01-04T15:53:11.446Z,12.4
2023-01-04T15:55:12.830Z,12.2
2023-01-04T15:57:15.762Z,12.1
2023-01-04T15:59:17.096Z,12.2
2023-01-04T16:01:21.860Z,12.2
2023-01-04T16:03:23.119Z,12.3
2023-01-04T16:05:24.491Z,12.3
2023-01-04T16:07:28.624Z,12.2
2023-01-04T16:09:27.270Z,12.2
2023-01-04T16:11:28.575Z,12.2
2023-01-04T16:13:29.959Z,12.1
2023-01-04T16:15:34.660Z,12.2
2023-01-04T16:17:36.002Z,12.1
2023-01-04T16:19:37.393Z,12.1
2023-01-04T16:21:38.752Z,12.2
2023-01-04T16:23:40.119Z,12.1
2023-01-04T16:25:41.459Z,12
2023-01-04T16:27:42.887Z,12
2023-01-04T16:29:47.529Z,12
2023-01-04T16:31:48.971Z,12
2023-01-04T16:33:50.271Z,12
2023-01-04T16:34:52.605Z,12.1
2023-01-04T16:36:53.963Z,12.1
2023-01-04T16:40:56.726Z,12.1
2023-01-04T16:43:01.389Z,12.1
2023-01-04T16:45:02.723Z,12.1
2023-01-04T16:47:04.189Z,12
2023-01-04T16:49:05.489Z,12
2023-01-04T16:53:08.227Z,12
2023-01-04T16:55:09.612Z,12.1
2023-01-04T16:57:14.267Z,12.1
2023-01-04T16:59:15.606Z,12
2023-01-04T17:01:17.120Z,12
2023-01-04T17:03:18.376Z,12
2023-01-04T17:05:19.709Z,12
2023-01-04T17:07:21.115Z,12
2023-01-04T17:09:22.476Z,12
2023-01-04T17:12:11.557Z,11.9
2023-01-04T17:13:28.530Z,12.1
2023-01-04T17:15:44.315Z,12
2023-01-04T17:17:31.243Z,12.1
2023-01-04T17:19:32.602Z,12
2023-01-04T17:21:35.044Z,12.1
2023-01-04T17:23:35.357Z,12.1
2023-01-04T17:25:40.015Z,12.1
2023-01-04T17:27:41.374Z,12.1
2023-01-04T17:29:42.697Z,12
2023-01-04T17:30:45.064Z,11.9
2023-01-04T17:32:46.394Z,11.9
2023-01-04T17:34:47.792Z,11.9
2023-01-04T17:36:49.136Z,11.9
2023-01-04T17:38:53.826Z,11.9
2023-01-04T17:40:55.152Z,11.9
2023-01-04T17:42:56.531Z,11.9
2023-01-04T17:44:57.921Z,11.9
2023-01-04T17:46:59.236Z,12
2023-01-04T17:49:21.581Z,12
2023-01-04T17:51:02.010Z,12
2023-01-04T17:53:06.667Z,12
2023-01-04T17:55:08.028Z,11.9
2023-01-04T17:57:09.400Z,11.9
2023-01-04T17:59:10.766Z,11.9
2023-01-04T18:01:12.179Z,12
2023-01-04T18:03:13.867Z,11.9
2023-01-04T18:05:15.213Z,12
2023-01-04T18:07:19.907Z,12
2023-01-04T18:09:22.496Z,11.9
2023-01-04T18:11:22.627Z,11.9
2023-01-04T18:13:23.971Z,11.9
2023-01-04T18:15:25.392Z,11.9
2023-01-04T18:17:26.792Z,11.9
2023-01-04T18:19:28.075Z,11.9
2023-01-04T18:21:32.717Z,12
2023-01-04T18:25:35.463Z,12
2023-01-04T18:28:39.175Z,11.2
2023-01-04T18:30:40.525Z,11.1
2023-01-04T18:38:49.292Z,11.5
2023-01-04T18:40:50.679Z,11.6
2023-01-04T18:42:52.038Z,11.6
2023-01-04T18:48:59.413Z,11.6
2023-01-04T18:51:00.750Z,11.6
2023-01-04T18:53:02.115Z,11.7
2023-01-04T18:55:03.506Z,11.6
2023-01-04T18:57:04.841Z,11.5
2023-01-04T18:59:06.224Z,11.5
2023-01-04T19:01:07.637Z,11.7
2023-01-04T19:03:18.265Z,11.6
2023-01-04T19:05:13.582Z,11.5
2023-01-04T19:07:14.998Z,11.1
2023-01-04T19:09:16.332Z,10.9
2023-01-04T19:11:17.677Z,10.8
2023-01-04T19:13:19.048Z,11.1
2023-01-04T19:15:20.417Z,11.2
2023-01-04T19:17:25.054Z,10.7
2023-01-04T19:27:59.196Z,10.7
2023-01-04T19:30:03.892Z,10.5
2023-01-04T19:32:05.230Z,10.5
2023-01-04T19:34:06.638Z,10.5
2023-01-04T19:38:09.286Z,10.5
2023-01-04T19:40:10.646Z,10.6
2023-01-04T19:42:12.021Z,10.4
2023-01-04T19:44:16.700Z,10.8
2023-01-04T19:46:18.053Z,10.8
2023-01-04T19:48:19.428Z,11
2023-01-04T19:50:20.791Z,11.1
2023-01-04T19:52:22.156Z,11.2
2023-01-04T19:54:25.704Z,11.3
2023-01-04T19:56:24.863Z,11.3
2023-01-04T19:58:29.528Z,11.2
2023-01-04T20:00:30.861Z,10.8
2023-01-04T20:04:33.606Z,10.4
2023-01-04T20:06:34.954Z,10.4
2023-01-04T20:08:36.309Z,10.4
2023-01-04T20:10:37.658Z,10.4
2023-01-04T20:14:43.735Z,10.3
2023-01-04T20:16:45.121Z,10.5
2023-01-04T20:25:56.185Z,10.3
2023-01-04T20:27:57.497Z,10.3
2023-01-04T20:29:58.900Z,10.2
2023-01-04T20:34:01.605Z,10.1
2023-01-04T20:36:02.984Z,10.1
2023-01-04T20:40:08.981Z,10.1
2023-01-04T20:44:11.708Z,10.2
2023-01-04T20:46:13.113Z,10.1
2023-01-04T20:48:14.391Z,10
2023-01-04T20:50:15.807Z,10
2023-01-04T20:52:17.139Z,10
2023-01-04T20:56:23.174Z,10
2023-01-04T20:58:24.545Z,10.1
2023-01-04T21:00:25.918Z,10
2023-01-04T21:02:27.497Z,10.1
2023-01-04T21:04:28.646Z,10
2023-01-04T21:06:30.035Z,10.1
2023-01-04T21:08:34.679Z,10.1
2023-01-04T21:10:36.088Z,10.2
2023-01-04T21:12:37.422Z,10.2
2023-01-04T21:13:39.747Z,10.1
2023-01-04T21:15:41.164Z,10.1
2023-01-04T21:17:42.484Z,10.1
2023-01-04T21:19:43.847Z,10
2023-01-04T21:21:48.506Z,10.2
2023-01-04T21:23:56.166Z,10.1
2023-01-04T21:31:55.361Z,10.2
2023-01-04T21:33:56.717Z,10.4
2023-01-04T21:36:01.362Z,10.6
2023-01-04T21:38:02.764Z,10.6
2023-01-04T21:42:05.458Z,10.8
2023-01-04T21:44:06.833Z,11.1
2023-01-04T21:48:11.123Z,11.1
2023-01-04T21:50:17.259Z,11.2
2023-01-04T21:52:17.093Z,11.1
2023-01-04T21:54:18.457Z,11.2
2023-01-04T21:56:19.812Z,11.3
2023-01-04T21:58:21.186Z,11.2
2023-01-04T22:00:22.547Z,11.3
2023-01-04T22:04:28.621Z,11.4
2023-01-04T22:06:29.928Z,11.4
2023-01-04T22:11:35.003Z,11.4
2023-01-04T22:13:36.357Z,11.5
2023-01-04T22:15:37.825Z,11.5
2023-01-04T22:17:42.374Z,11.4
2023-01-04T22:19:43.777Z,11.5
2023-01-04T22:21:45.085Z,11.5
2023-01-04T22:23:46.491Z,11.5
2023-01-04T22:25:47.826Z,11.5
2023-01-04T22:27:49.173Z,11.4
2023-01-04T22:29:50.548Z,11.5
2023-01-04T22:31:55.261Z,11.5
2023-01-04T22:33:56.590Z,11.6
2023-01-04T22:35:57.938Z,11.5
2023-01-04T22:37:59.323Z,11.4
2023-01-04T22:40:00.703Z,11.5
2023-01-04T22:44:03.443Z,11.5
2023-01-04T22:46:08.122Z,11.4
2023-01-04T22:48:09.440Z,11.4
2023-01-04T22:54:13.557Z,11.4
2023-01-04T22:56:20.374Z,11.3
2023-01-04T22:58:16.265Z,11.3
2023-01-04T23:00:20.948Z,11.3
2023-01-04T23:02:22.291Z,11.3
2023-01-04T23:04:23.765Z,11.3
2023-01-04T23:06:46.389Z,11.4
2023-01-04T23:08:47.760Z,11.4
2023-01-04T23:10:49.143Z,11.4
2023-01-04T23:12:53.779Z,11.2
2023-01-04T23:14:55.170Z,11.2
2023-01-04T23:16:56.569Z,11.3
2023-01-04T23:18:58.681Z,11.3
2023-01-04T23:21:00.105Z,11.2
2023-01-04T23:23:01.417Z,11.2
2023-01-04T23:25:02.777Z,11.3
2023-01-04T23:27:07.507Z,11.2
2023-01-04T23:29:08.818Z,11.1
2023-01-04T23:31:10.229Z,10.9
2023-01-04T23:33:11.551Z,11.1
2023-01-04T23:35:12.905Z,11.1
2023-01-04T23:37:14.255Z,10.9
2023-01-04T23:39:15.670Z,11
2023-01-04T23:41:20.274Z,11.2
2023-01-04T23:43:21.642Z,11.2
2023-01-04T23:45:23.011Z,11.2
2023-01-04T23:47:24.367Z,11.2
2023-01-04T23:49:25.761Z,11.1
2023-01-04T23:51:27.150Z,11.1
2023-01-04T23:53:28.478Z,11.1
2023-01-04T23:55:33.145Z,11.1
2023-01-04T23:57:34.516Z,11
2023-01-04T23:59:35.869Z,11.1
